sensor_id;sensor_type;location;lat;lon;timestamp;temperature;humidity
18085;DHT22;9169;44.492;11.372;2022-07-05T00:01:22;29.60;59.90
18085;DHT22;9169;44.492;11.372;2022-07-05T00:03:49;29.60;59.70
18085;DHT22;9169;44.492;11.372;2022-07-05T00:06:16;29.60;59.10
18085;DHT22;9169;44.492;11.372;2022-07-05T00:08:42;29.60;57.50
18085;DHT22;9169;44.492;11.372;2022-07-05T00:11:10;29.70;58.00
18085;DHT22;9169;44.492;11.372;2022-07-05T00:13:37;29.70;58.00
18085;DHT22;9169;44.492;11.372;2022-07-05T00:16:04;29.70;57.90
18085;DHT22;9169;44.492;11.372;2022-07-05T00:18:31;29.80;57.60
18085;DHT22;9169;44.492;11.372;2022-07-05T00:20:58;29.80;58.30
18085;DHT22;9169;44.492;11.372;2022-07-05T00:23:25;29.80;58.30
18085;DHT22;9169;44.492;11.372;2022-07-05T00:25:52;29.70;57.90
18085;DHT22;9169;44.492;11.372;2022-07-05T00:28:20;29.70;58.10
18085;DHT22;9169;44.492;11.372;2022-07-05T00:30:47;29.70;57.70
18085;DHT22;9169;44.492;11.372;2022-07-05T00:33:14;29.70;57.00
18085;DHT22;9169;44.492;11.372;2022-07-05T00:35:41;29.70;56.20
18085;DHT22;9169;44.492;11.372;2022-07-05T00:38:08;29.70;55.40
18085;DHT22;9169;44.492;11.372;2022-07-05T00:40:34;29.80;55.30
18085;DHT22;9169;44.492;11.372;2022-07-05T00:43:01;29.70;54.80
18085;DHT22;9169;44.492;11.372;2022-07-05T00:45:30;29.70;54.70
18085;DHT22;9169;44.492;11.372;2022-07-05T00:47:57;29.70;54.50
18085;DHT22;9169;44.492;11.372;2022-07-05T00:50:23;29.70;54.40
18085;DHT22;9169;44.492;11.372;2022-07-05T00:52:52;29.70;53.80
18085;DHT22;9169;44.492;11.372;2022-07-05T00:55:19;29.70;53.10
18085;DHT22;9169;44.492;11.372;2022-07-05T00:57:46;29.90;53.20
18085;DHT22;9169;44.492;11.372;2022-07-05T01:00:13;29.90;53.70
18085;DHT22;9169;44.492;11.372;2022-07-05T01:02:41;29.90;53.10
18085;DHT22;9169;44.492;11.372;2022-07-05T01:05:08;29.90;53.20
18085;DHT22;9169;44.492;11.372;2022-07-05T01:07:35;29.80;53.10
18085;DHT22;9169;44.492;11.372;2022-07-05T01:10:02;29.90;53.00
18085;DHT22;9169;44.492;11.372;2022-07-05T01:12:29;29.90;53.40
18085;DHT22;9169;44.492;11.372;2022-07-05T01:14:56;29.80;53.60
18085;DHT22;9169;44.492;11.372;2022-07-05T01:17:22;29.80;52.90
18085;DHT22;9169;44.492;11.372;2022-07-05T01:19:51;29.70;52.30
18085;DHT22;9169;44.492;11.372;2022-07-05T01:22:19;29.70;52.30
18085;DHT22;9169;44.492;11.372;2022-07-05T01:24:48;29.70;51.10
18085;DHT22;9169;44.492;11.372;2022-07-05T01:27:15;29.70;52.00
18085;DHT22;9169;44.492;11.372;2022-07-05T01:29:42;29.70;51.70
18085;DHT22;9169;44.492;11.372;2022-07-05T01:32:09;29.70;51.20
18085;DHT22;9169;44.492;11.372;2022-07-05T01:34:36;29.70;51.10
18085;DHT22;9169;44.492;11.372;2022-07-05T01:37:04;29.70;51.50
18085;DHT22;9169;44.492;11.372;2022-07-05T01:39:31;29.70;51.10
18085;DHT22;9169;44.492;11.372;2022-07-05T01:42:00;29.70;50.90
18085;DHT22;9169;44.492;11.372;2022-07-05T01:44:27;29.60;50.90
18085;DHT22;9169;44.492;11.372;2022-07-05T01:46:57;29.60;50.70
18085;DHT22;9169;44.492;11.372;2022-07-05T01:49:25;29.60;50.90
18085;DHT22;9169;44.492;11.372;2022-07-05T01:51:54;29.60;51.00
18085;DHT22;9169;44.492;11.372;2022-07-05T01:54:21;29.50;51.30
18085;DHT22;9169;44.492;11.372;2022-07-05T01:56:48;29.40;51.50
18085;DHT22;9169;44.492;11.372;2022-07-05T01:59:16;29.40;51.70
18085;DHT22;9169;44.492;11.372;2022-07-05T02:01:43;29.30;51.50
18085;DHT22;9169;44.492;11.372;2022-07-05T02:04:10;29.30;51.60
18085;DHT22;9169;44.492;11.372;2022-07-05T02:06:37;29.20;51.80
18085;DHT22;9169;44.492;11.372;2022-07-05T02:09:05;29.10;51.40
18085;DHT22;9169;44.492;11.372;2022-07-05T02:11:32;29.10;51.60
18085;DHT22;9169;44.492;11.372;2022-07-05T02:13:59;29.10;51.90
18085;DHT22;9169;44.492;11.372;2022-07-05T02:16:28;28.90;52.10
18085;DHT22;9169;44.492;11.372;2022-07-05T02:18:55;28.90;51.90
18085;DHT22;9169;44.492;11.372;2022-07-05T02:21:21;29.10;52.10
18085;DHT22;9169;44.492;11.372;2022-07-05T02:23:48;28.70;52.10
18085;DHT22;9169;44.492;11.372;2022-07-05T02:26:15;28.70;51.60
18085;DHT22;9169;44.492;11.372;2022-07-05T02:28:42;28.60;53.80
18085;DHT22;9169;44.492;11.372;2022-07-05T02:31:09;28.60;54.60
18085;DHT22;9169;44.492;11.372;2022-07-05T02:33:37;28.60;54.50
18085;DHT22;9169;44.492;11.372;2022-07-05T02:36:05;28.60;54.60
18085;DHT22;9169;44.492;11.372;2022-07-05T02:38:32;28.50;55.90
18085;DHT22;9169;44.492;11.372;2022-07-05T02:40:59;28.50;55.90
18085;DHT22;9169;44.492;11.372;2022-07-05T02:43:25;28.50;55.80
18085;DHT22;9169;44.492;11.372;2022-07-05T02:45:52;28.50;52.60
18085;DHT22;9169;44.492;11.372;2022-07-05T02:48:19;28.40;51.10
18085;DHT22;9169;44.492;11.372;2022-07-05T02:50:47;28.40;50.90
18085;DHT22;9169;44.492;11.372;2022-07-05T02:53:14;28.40;50.70
18085;DHT22;9169;44.492;11.372;2022-07-05T02:55:41;28.50;50.90
18085;DHT22;9169;44.492;11.372;2022-07-05T02:58:08;28.50;51.00
18085;DHT22;9169;44.492;11.372;2022-07-05T03:00:34;28.40;50.80
18085;DHT22;9169;44.492;11.372;2022-07-05T03:03:01;28.50;49.70
18085;DHT22;9169;44.492;11.372;2022-07-05T03:05:28;28.50;48.40
18085;DHT22;9169;44.492;11.372;2022-07-05T03:07:56;28.50;48.50
18085;DHT22;9169;44.492;11.372;2022-07-05T03:10:23;28.50;48.80
18085;DHT22;9169;44.492;11.372;2022-07-05T03:12:50;28.50;48.60
18085;DHT22;9169;44.492;11.372;2022-07-05T03:15:17;28.50;48.90
18085;DHT22;9169;44.492;11.372;2022-07-05T03:17:44;28.50;48.80
18085;DHT22;9169;44.492;11.372;2022-07-05T03:20:11;28.50;48.50
18085;DHT22;9169;44.492;11.372;2022-07-05T03:22:38;28.50;48.20
18085;DHT22;9169;44.492;11.372;2022-07-05T03:25:07;28.50;48.20
18085;DHT22;9169;44.492;11.372;2022-07-05T03:27:34;28.60;48.30
18085;DHT22;9169;44.492;11.372;2022-07-05T03:30:00;28.60;48.10
18085;DHT22;9169;44.492;11.372;2022-07-05T03:32:27;28.60;48.30
18085;DHT22;9169;44.492;11.372;2022-07-05T03:34:54;28.60;48.20
18085;DHT22;9169;44.492;11.372;2022-07-05T03:37:21;28.70;48.00
18085;DHT22;9169;44.492;11.372;2022-07-05T03:39:48;28.60;48.50
18085;DHT22;9169;44.492;11.372;2022-07-05T03:42:16;28.60;48.90
18085;DHT22;9169;44.492;11.372;2022-07-05T03:44:43;28.50;48.90
18085;DHT22;9169;44.492;11.372;2022-07-05T03:47:10;28.50;48.80
18085;DHT22;9169;44.492;11.372;2022-07-05T03:49:36;28.50;48.90
18085;DHT22;9169;44.492;11.372;2022-07-05T03:52:03;28.50;49.00
18085;DHT22;9169;44.492;11.372;2022-07-05T03:54:30;28.50;49.20
18085;DHT22;9169;44.492;11.372;2022-07-05T03:56:57;28.40;49.40
18085;DHT22;9169;44.492;11.372;2022-07-05T03:59:25;28.40;49.20
18085;DHT22;9169;44.492;11.372;2022-07-05T04:01:52;28.40;49.00
18085;DHT22;9169;44.492;11.372;2022-07-05T04:04:19;28.40;49.30
18085;DHT22;9169;44.492;11.372;2022-07-05T04:06:46;28.40;48.90
18085;DHT22;9169;44.492;11.372;2022-07-05T04:09:12;28.30;49.30
18085;DHT22;9169;44.492;11.372;2022-07-05T04:11:42;28.30;49.60
18085;DHT22;9169;44.492;11.372;2022-07-05T04:14:09;28.30;49.50
18085;DHT22;9169;44.492;11.372;2022-07-05T04:16:37;28.30;49.50
18085;DHT22;9169;44.492;11.372;2022-07-05T04:19:04;28.30;49.30
18085;DHT22;9169;44.492;11.372;2022-07-05T04:21:31;28.40;49.90
18085;DHT22;9169;44.492;11.372;2022-07-05T04:23:57;28.40;50.40
18085;DHT22;9169;44.492;11.372;2022-07-05T04:26:24;28.40;50.40
18085;DHT22;9169;44.492;11.372;2022-07-05T04:28:51;28.40;50.50
18085;DHT22;9169;44.492;11.372;2022-07-05T04:31:18;28.40;50.70
18085;DHT22;9169;44.492;11.372;2022-07-05T04:33:46;28.40;50.70
18085;DHT22;9169;44.492;11.372;2022-07-05T04:36:13;28.40;50.40
18085;DHT22;9169;44.492;11.372;2022-07-05T04:38:39;28.40;50.50
18085;DHT22;9169;44.492;11.372;2022-07-05T04:41:06;28.50;50.90
18085;DHT22;9169;44.492;11.372;2022-07-05T04:43:33;28.50;50.70
18085;DHT22;9169;44.492;11.372;2022-07-05T04:46:00;28.50;50.60
18085;DHT22;9169;44.492;11.372;2022-07-05T04:48:27;28.50;50.50
18085;DHT22;9169;44.492;11.372;2022-07-05T04:50:55;28.50;50.70
18085;DHT22;9169;44.492;11.372;2022-07-05T04:53:22;28.60;50.70
18085;DHT22;9169;44.492;11.372;2022-07-05T04:55:49;28.50;51.00
18085;DHT22;9169;44.492;11.372;2022-07-05T04:58:15;28.50;50.70
18085;DHT22;9169;44.492;11.372;2022-07-05T05:00:42;28.50;51.00
18085;DHT22;9169;44.492;11.372;2022-07-05T05:03:09;28.50;51.30
18085;DHT22;9169;44.492;11.372;2022-07-05T05:05:35;28.50;51.30
18085;DHT22;9169;44.492;11.372;2022-07-05T05:08:04;28.50;51.40
18085;DHT22;9169;44.492;11.372;2022-07-05T05:10:31;28.50;51.50
18085;DHT22;9169;44.492;11.372;2022-07-05T05:12:58;28.40;51.70
18085;DHT22;9169;44.492;11.372;2022-07-05T05:15:25;28.50;51.50
18085;DHT22;9169;44.492;11.372;2022-07-05T05:17:52;28.40;51.40
18085;DHT22;9169;44.492;11.372;2022-07-05T05:20:18;28.50;51.40
18085;DHT22;9169;44.492;11.372;2022-07-05T05:22:46;28.50;51.50
18085;DHT22;9169;44.492;11.372;2022-07-05T05:25:14;28.50;51.20
18085;DHT22;9169;44.492;11.372;2022-07-05T05:27:41;28.60;51.30
18085;DHT22;9169;44.492;11.372;2022-07-05T05:30:09;28.60;51.00
18085;DHT22;9169;44.492;11.372;2022-07-05T05:32:36;28.70;51.10
18085;DHT22;9169;44.492;11.372;2022-07-05T05:35:03;28.80;51.00
18085;DHT22;9169;44.492;11.372;2022-07-05T05:37:30;28.80;51.40
18085;DHT22;9169;44.492;11.372;2022-07-05T05:39:57;28.70;51.90
18085;DHT22;9169;44.492;11.372;2022-07-05T05:42:25;28.80;52.30
18085;DHT22;9169;44.492;11.372;2022-07-05T05:44:52;28.80;52.00
18085;DHT22;9169;44.492;11.372;2022-07-05T05:47:18;28.80;52.10
18085;DHT22;9169;44.492;11.372;2022-07-05T05:49:45;28.80;52.00
18085;DHT22;9169;44.492;11.372;2022-07-05T05:52:12;29.00;52.60
18085;DHT22;9169;44.492;11.372;2022-07-05T05:54:39;28.90;53.30
18085;DHT22;9169;44.492;11.372;2022-07-05T05:57:06;28.90;54.00
18085;DHT22;9169;44.492;11.372;2022-07-05T05:59:34;29.00;55.10
18085;DHT22;9169;44.492;11.372;2022-07-05T06:02:01;29.10;56.90
18085;DHT22;9169;44.492;11.372;2022-07-05T06:04:28;29.10;58.80
18085;DHT22;9169;44.492;11.372;2022-07-05T06:06:54;29.10;55.20
18085;DHT22;9169;44.492;11.372;2022-07-05T06:09:21;29.20;55.00
18085;DHT22;9169;44.492;11.372;2022-07-05T06:11:48;29.30;53.50
18085;DHT22;9169;44.492;11.372;2022-07-05T06:14:15;29.40;53.50
18085;DHT22;9169;44.492;11.372;2022-07-05T06:16:43;29.50;52.20
18085;DHT22;9169;44.492;11.372;2022-07-05T06:19:10;29.50;51.10
18085;DHT22;9169;44.492;11.372;2022-07-05T06:21:37;29.60;50.70
18085;DHT22;9169;44.492;11.372;2022-07-05T06:24:04;29.70;50.30
18085;DHT22;9169;44.492;11.372;2022-07-05T06:26:30;29.70;50.50
18085;DHT22;9169;44.492;11.372;2022-07-05T06:28:57;29.80;50.50
18085;DHT22;9169;44.492;11.372;2022-07-05T06:31:24;29.90;50.30
18085;DHT22;9169;44.492;11.372;2022-07-05T06:33:52;29.90;50.40
18085;DHT22;9169;44.492;11.372;2022-07-05T06:36:19;29.40;50.00
18085;DHT22;9169;44.492;11.372;2022-07-05T06:38:46;29.90;50.40
18085;DHT22;9169;44.492;11.372;2022-07-05T06:41:13;29.90;50.00
18085;DHT22;9169;44.492;11.372;2022-07-05T06:43:40;30.10;49.50
18085;DHT22;9169;44.492;11.372;2022-07-05T06:46:07;30.20;49.70
18085;DHT22;9169;44.492;11.372;2022-07-05T06:48:33;30.30;49.30
18085;DHT22;9169;44.492;11.372;2022-07-05T06:51:02;30.30;49.00
18085;DHT22;9169;44.492;11.372;2022-07-05T06:53:29;30.40;48.50
18085;DHT22;9169;44.492;11.372;2022-07-05T06:55:55;30.50;48.10
18085;DHT22;9169;44.492;11.372;2022-07-05T06:58:22;30.60;48.00
18085;DHT22;9169;44.492;11.372;2022-07-05T07:00:49;30.80;48.00
18085;DHT22;9169;44.492;11.372;2022-07-05T07:03:16;30.70;47.80
18085;DHT22;9169;44.492;11.372;2022-07-05T07:05:43;30.80;47.70
18085;DHT22;9169;44.492;11.372;2022-07-05T07:08:11;30.90;47.70
18085;DHT22;9169;44.492;11.372;2022-07-05T07:10:55;30.90;47.60
18085;DHT22;9169;44.492;11.372;2022-07-05T07:13:22;30.90;47.60
18085;DHT22;9169;44.492;11.372;2022-07-05T07:15:49;30.90;47.60
18085;DHT22;9169;44.492;11.372;2022-07-05T07:18:15;31.00;47.30
18085;DHT22;9169;44.492;11.372;2022-07-05T07:20:42;31.00;47.20
18085;DHT22;9169;44.492;11.372;2022-07-05T07:23:10;31.10;47.20
18085;DHT22;9169;44.492;11.372;2022-07-05T07:25:37;31.20;47.10
18085;DHT22;9169;44.492;11.372;2022-07-05T07:28:04;31.20;47.10
18085;DHT22;9169;44.492;11.372;2022-07-05T07:30:32;31.20;46.90
18085;DHT22;9169;44.492;11.372;2022-07-05T07:32:58;31.30;46.90
18085;DHT22;9169;44.492;11.372;2022-07-05T07:35:25;31.40;46.80
18085;DHT22;9169;44.492;11.372;2022-07-05T07:37:52;31.60;46.90
18085;DHT22;9169;44.492;11.372;2022-07-05T07:40:20;31.40;46.70
18085;DHT22;9169;44.492;11.372;2022-07-05T07:42:47;31.50;46.60
18085;DHT22;9169;44.492;11.372;2022-07-05T07:45:14;31.50;46.70
18085;DHT22;9169;44.492;11.372;2022-07-05T07:47:41;31.60;46.70
18085;DHT22;9169;44.492;11.372;2022-07-05T07:50:08;31.60;46.70
18085;DHT22;9169;44.492;11.372;2022-07-05T07:52:35;31.60;46.50
18085;DHT22;9169;44.492;11.372;2022-07-05T07:55:03;31.70;46.90
18085;DHT22;9169;44.492;11.372;2022-07-05T07:57:32;31.70;46.60
18085;DHT22;9169;44.492;11.372;2022-07-05T07:59:58;31.70;46.70
18085;DHT22;9169;44.492;11.372;2022-07-05T08:02:25;31.70;46.50
18085;DHT22;9169;44.492;11.372;2022-07-05T08:04:52;31.80;46.60
18085;DHT22;9169;44.492;11.372;2022-07-05T08:07:19;31.80;46.40
18085;DHT22;9169;44.492;11.372;2022-07-05T08:09:46;31.80;46.50
18085;DHT22;9169;44.492;11.372;2022-07-05T08:12:12;31.90;46.70
18085;DHT22;9169;44.492;11.372;2022-07-05T08:14:40;31.90;46.70
18085;DHT22;9169;44.492;11.372;2022-07-05T08:17:07;31.60;46.50
18085;DHT22;9169;44.492;11.372;2022-07-05T08:19:34;31.90;46.50
18085;DHT22;9169;44.492;11.372;2022-07-05T08:22:19;32.00;46.50
18085;DHT22;9169;44.492;11.372;2022-07-05T08:24:46;32.00;46.40
18085;DHT22;9169;44.492;11.372;2022-07-05T08:27:13;32.00;46.40
18085;DHT22;9169;44.492;11.372;2022-07-05T08:29:41;32.20;46.90
18085;DHT22;9169;44.492;11.372;2022-07-05T08:32:08;32.10;46.20
18085;DHT22;9169;44.492;11.372;2022-07-05T08:34:35;32.20;46.10
18085;DHT22;9169;44.492;11.372;2022-07-05T08:37:03;32.20;46.10
18085;DHT22;9169;44.492;11.372;2022-07-05T08:39:30;32.30;46.10
18085;DHT22;9169;44.492;11.372;2022-07-05T08:41:57;32.30;46.00
18085;DHT22;9169;44.492;11.372;2022-07-05T08:44:24;32.30;46.10
18085;DHT22;9169;44.492;11.372;2022-07-05T08:46:55;32.50;46.10
18085;DHT22;9169;44.492;11.372;2022-07-05T08:49:23;32.50;45.90
18085;DHT22;9169;44.492;11.372;2022-07-05T08:51:50;32.60;45.90
18085;DHT22;9169;44.492;11.372;2022-07-05T08:54:17;32.70;45.90
18085;DHT22;9169;44.492;11.372;2022-07-05T08:56:44;32.80;46.00
18085;DHT22;9169;44.492;11.372;2022-07-05T08:59:11;32.80;45.90
18085;DHT22;9169;44.492;11.372;2022-07-05T09:01:38;32.90;45.90
18085;DHT22;9169;44.492;11.372;2022-07-05T09:04:07;33.00;45.90
18085;DHT22;9169;44.492;11.372;2022-07-05T09:06:35;32.90;45.80
18085;DHT22;9169;44.492;11.372;2022-07-05T09:09:02;33.10;45.70
18085;DHT22;9169;44.492;11.372;2022-07-05T09:11:30;33.20;45.80
18085;DHT22;9169;44.492;11.372;2022-07-05T09:14:00;33.30;45.60
18085;DHT22;9169;44.492;11.372;2022-07-05T09:16:29;33.40;45.50
18085;DHT22;9169;44.492;11.372;2022-07-05T09:18:56;33.60;45.60
18085;DHT22;9169;44.492;11.372;2022-07-05T09:21:25;33.70;45.60
18085;DHT22;9169;44.492;11.372;2022-07-05T09:23:55;33.80;45.40
18085;DHT22;9169;44.492;11.372;2022-07-05T09:26:26;33.90;45.40
18085;DHT22;9169;44.492;11.372;2022-07-05T09:28:53;34.00;45.40
18085;DHT22;9169;44.492;11.372;2022-07-05T09:31:32;34.10;45.40
18085;DHT22;9169;44.492;11.372;2022-07-05T09:34:03;34.20;45.30
18085;DHT22;9169;44.492;11.372;2022-07-05T09:39:13;34.50;45.20
18085;DHT22;9169;44.492;11.372;2022-07-05T09:41:42;34.60;45.10
18085;DHT22;9169;44.492;11.372;2022-07-05T09:44:09;34.70;45.00
18085;DHT22;9169;44.492;11.372;2022-07-05T09:46:36;34.80;45.00
18085;DHT22;9169;44.492;11.372;2022-07-05T09:49:03;34.90;44.80
18085;DHT22;9169;44.492;11.372;2022-07-05T09:51:30;35.00;44.60
18085;DHT22;9169;44.492;11.372;2022-07-05T09:54:14;35.00;44.50
18085;DHT22;9169;44.492;11.372;2022-07-05T09:56:44;35.10;44.20
18085;DHT22;9169;44.492;11.372;2022-07-05T09:59:17;35.30;44.30
18085;DHT22;9169;44.492;11.372;2022-07-05T10:01:45;35.30;44.30
18085;DHT22;9169;44.492;11.372;2022-07-05T10:04:12;35.50;44.20
18085;DHT22;9169;44.492;11.372;2022-07-05T10:06:39;35.50;44.10
18085;DHT22;9169;44.492;11.372;2022-07-05T10:09:06;35.60;44.10
18085;DHT22;9169;44.492;11.372;2022-07-05T10:11:36;35.80;44.10
18085;DHT22;9169;44.492;11.372;2022-07-05T10:14:04;36.00;44.10
18085;DHT22;9169;44.492;11.372;2022-07-05T10:16:34;36.10;43.90
18085;DHT22;9169;44.492;11.372;2022-07-05T10:19:00;36.30;44.00
18085;DHT22;9169;44.492;11.372;2022-07-05T10:21:27;36.40;43.80
18085;DHT22;9169;44.492;11.372;2022-07-05T10:23:54;36.50;43.70
18085;DHT22;9169;44.492;11.372;2022-07-05T10:26:22;36.60;43.20
18085;DHT22;9169;44.492;11.372;2022-07-05T10:28:52;36.80;43.40
18085;DHT22;9169;44.492;11.372;2022-07-05T10:31:19;36.90;43.30
18085;DHT22;9169;44.492;11.372;2022-07-05T10:33:45;36.90;43.20
18085;DHT22;9169;44.492;11.372;2022-07-05T10:36:13;37.10;43.30
18085;DHT22;9169;44.492;11.372;2022-07-05T10:38:40;37.20;42.40
18085;DHT22;9169;44.492;11.372;2022-07-05T10:41:09;37.30;42.80
18085;DHT22;9169;44.492;11.372;2022-07-05T10:43:36;37.40;42.90
18085;DHT22;9169;44.492;11.372;2022-07-05T10:46:04;37.50;42.90
18085;DHT22;9169;44.492;11.372;2022-07-05T10:48:33;37.60;42.60
18085;DHT22;9169;44.492;11.372;2022-07-05T10:51:00;37.70;42.40
18085;DHT22;9169;44.492;11.372;2022-07-05T10:56:16;38.00;42.50
18085;DHT22;9169;44.492;11.372;2022-07-05T10:58:43;38.10;41.50
18085;DHT22;9169;44.492;11.372;2022-07-05T11:04:12;38.20;41.70
18085;DHT22;9169;44.492;11.372;2022-07-05T11:06:42;38.20;41.60
18085;DHT22;9169;44.492;11.372;2022-07-05T11:09:16;38.30;41.70
18085;DHT22;9169;44.492;11.372;2022-07-05T11:11:43;38.40;41.70
18085;DHT22;9169;44.492;11.372;2022-07-05T11:17:10;38.50;42.10
18085;DHT22;9169;44.492;11.372;2022-07-05T11:22:20;38.80;41.70
18085;DHT22;9169;44.492;11.372;2022-07-05T11:24:47;38.90;41.40
18085;DHT22;9169;44.492;11.372;2022-07-05T11:27:14;39.00;41.40
18085;DHT22;9169;44.492;11.372;2022-07-05T11:29:41;39.20;41.30
18085;DHT22;9169;44.492;11.372;2022-07-05T11:32:09;39.40;41.50
18085;DHT22;9169;44.492;11.372;2022-07-05T11:34:36;39.70;41.10
18085;DHT22;9169;44.492;11.372;2022-07-05T11:37:21;40.00;40.50
18085;DHT22;9169;44.492;11.372;2022-07-05T11:42:30;41.00;38.40
18085;DHT22;9169;44.492;11.372;2022-07-05T11:44:58;41.50;38.30
18085;DHT22;9169;44.492;11.372;2022-07-05T11:47:26;42.30;37.50
18085;DHT22;9169;44.492;11.372;2022-07-05T11:49:53;43.20;36.90
18085;DHT22;9169;44.492;11.372;2022-07-05T11:52:25;44.20;36.90
18085;DHT22;9169;44.492;11.372;2022-07-05T11:54:52;45.20;36.10
18085;DHT22;9169;44.492;11.372;2022-07-05T11:57:19;46.20;34.50
18085;DHT22;9169;44.492;11.372;2022-07-05T11:59:46;47.10;33.80
18085;DHT22;9169;44.492;11.372;2022-07-05T12:02:13;47.50;27.90
18085;DHT22;9169;44.492;11.372;2022-07-05T12:04:40;47.90;32.50
18085;DHT22;9169;44.492;11.372;2022-07-05T12:07:07;48.10;31.30
18085;DHT22;9169;44.492;11.372;2022-07-05T12:09:35;48.50;31.80
18085;DHT22;9169;44.492;11.372;2022-07-05T12:12:17;48.90;30.90
18085;DHT22;9169;44.492;11.372;2022-07-05T12:15:01;48.80;30.00
18085;DHT22;9169;44.492;11.372;2022-07-05T12:17:28;48.90;32.10
18085;DHT22;9169;44.492;11.372;2022-07-05T12:19:55;49.10;32.40
18085;DHT22;9169;44.492;11.372;2022-07-05T12:22:31;49.50;32.40
18085;DHT22;9169;44.492;11.372;2022-07-05T12:25:00;50.10;32.30
18085;DHT22;9169;44.492;11.372;2022-07-05T12:27:27;50.50;30.60
18085;DHT22;9169;44.492;11.372;2022-07-05T12:29:54;50.90;30.70
18085;DHT22;9169;44.492;11.372;2022-07-05T12:32:21;50.90;31.60
18085;DHT22;9169;44.492;11.372;2022-07-05T12:34:48;51.10;32.90
18085;DHT22;9169;44.492;11.372;2022-07-05T12:37:19;51.30;33.30
18085;DHT22;9169;44.492;11.372;2022-07-05T12:39:46;51.50;34.00
18085;DHT22;9169;44.492;11.372;2022-07-05T12:45:12;51.80;34.90
18085;DHT22;9169;44.492;11.372;2022-07-05T12:47:48;52.10;35.10
18085;DHT22;9169;44.492;11.372;2022-07-05T12:50:15;52.40;36.40
18085;DHT22;9169;44.492;11.372;2022-07-05T12:52:58;52.50;37.60
18085;DHT22;9169;44.492;11.372;2022-07-05T12:55:32;52.50;37.80
18085;DHT22;9169;44.492;11.372;2022-07-05T12:58:17;52.40;37.80
18085;DHT22;9169;44.492;11.372;2022-07-05T13:00:45;52.30;38.50
18085;DHT22;9169;44.492;11.372;2022-07-05T13:03:12;52.40;38.30
18085;DHT22;9169;44.492;11.372;2022-07-05T13:05:39;52.70;39.20
18085;DHT22;9169;44.492;11.372;2022-07-05T13:08:06;52.90;38.80
18085;DHT22;9169;44.492;11.372;2022-07-05T13:10:32;52.90;39.40
18085;DHT22;9169;44.492;11.372;2022-07-05T13:12:59;53.10;39.80
18085;DHT22;9169;44.492;11.372;2022-07-05T13:15:27;53.20;40.50
18085;DHT22;9169;44.492;11.372;2022-07-05T13:17:55;53.10;40.40
18085;DHT22;9169;44.492;11.372;2022-07-05T13:20:22;53.10;41.30
18085;DHT22;9169;44.492;11.372;2022-07-05T13:22:49;53.10;41.90
18085;DHT22;9169;44.492;11.372;2022-07-05T13:25:16;53.20;41.80
18085;DHT22;9169;44.492;11.372;2022-07-05T13:27:43;53.10;42.10
18085;DHT22;9169;44.492;11.372;2022-07-05T13:30:10;53.00;42.00
18085;DHT22;9169;44.492;11.372;2022-07-05T13:32:37;53.00;41.90
18085;DHT22;9169;44.492;11.372;2022-07-05T13:35:06;52.70;41.70
18085;DHT22;9169;44.492;11.372;2022-07-05T13:37:33;52.80;42.10
18085;DHT22;9169;44.492;11.372;2022-07-05T13:40:00;52.90;42.20
18085;DHT22;9169;44.492;11.372;2022-07-05T13:42:27;53.00;41.70
18085;DHT22;9169;44.492;11.372;2022-07-05T13:44:53;53.40;41.90
18085;DHT22;9169;44.492;11.372;2022-07-05T13:47:20;53.70;41.60
18085;DHT22;9169;44.492;11.372;2022-07-05T13:49:47;53.90;42.00
18085;DHT22;9169;44.492;11.372;2022-07-05T13:52:15;53.90;42.10
18085;DHT22;9169;44.492;11.372;2022-07-05T13:54:42;53.80;43.00
18085;DHT22;9169;44.492;11.372;2022-07-05T13:57:09;53.80;42.10
18085;DHT22;9169;44.492;11.372;2022-07-05T13:59:36;53.30;42.00
18085;DHT22;9169;44.492;11.372;2022-07-05T14:02:03;53.20;43.20
18085;DHT22;9169;44.492;11.372;2022-07-05T14:04:30;53.40;42.90
18085;DHT22;9169;44.492;11.372;2022-07-05T14:06:58;53.70;41.50
18085;DHT22;9169;44.492;11.372;2022-07-05T14:09:27;53.70;41.50
18085;DHT22;9169;44.492;11.372;2022-07-05T14:11:53;53.70;42.20
18085;DHT22;9169;44.492;11.372;2022-07-05T14:14:20;54.00;42.60
18085;DHT22;9169;44.492;11.372;2022-07-05T14:16:47;54.20;42.80
18085;DHT22;9169;44.492;11.372;2022-07-05T14:19:14;54.30;43.70
18085;DHT22;9169;44.492;11.372;2022-07-05T14:21:41;54.00;43.90
18085;DHT22;9169;44.492;11.372;2022-07-05T14:24:10;54.00;44.00
18085;DHT22;9169;44.492;11.372;2022-07-05T14:26:39;53.30;45.00
18085;DHT22;9169;44.492;11.372;2022-07-05T14:29:06;53.30;45.40
18085;DHT22;9169;44.492;11.372;2022-07-05T14:31:33;53.00;37.60
18085;DHT22;9169;44.492;11.372;2022-07-05T14:34:00;52.80;36.20
18085;DHT22;9169;44.492;11.372;2022-07-05T14:36:27;52.60;35.90
18085;DHT22;9169;44.492;11.372;2022-07-05T14:38:53;52.60;36.40
18085;DHT22;9169;44.492;11.372;2022-07-05T14:41:20;52.50;35.60
18085;DHT22;9169;44.492;11.372;2022-07-05T14:43:48;52.50;35.10
18085;DHT22;9169;44.492;11.372;2022-07-05T14:46:16;52.10;35.10
18085;DHT22;9169;44.492;11.372;2022-07-05T14:48:44;51.80;37.40
18085;DHT22;9169;44.492;11.372;2022-07-05T14:51:11;51.40;36.90
18085;DHT22;9169;44.492;11.372;2022-07-05T14:53:38;51.40;38.20
18085;DHT22;9169;44.492;11.372;2022-07-05T14:56:07;51.40;37.70
18085;DHT22;9169;44.492;11.372;2022-07-05T14:58:34;51.30;37.50
18085;DHT22;9169;44.492;11.372;2022-07-05T15:01:02;50.80;37.90
18085;DHT22;9169;44.492;11.372;2022-07-05T15:03:29;50.40;39.60
18085;DHT22;9169;44.492;11.372;2022-07-05T15:05:56;50.50;40.10
18085;DHT22;9169;44.492;11.372;2022-07-05T15:08:22;50.80;40.10
18085;DHT22;9169;44.492;11.372;2022-07-05T15:10:50;50.80;39.70
18085;DHT22;9169;44.492;11.372;2022-07-05T15:13:18;50.80;39.80
18085;DHT22;9169;44.492;11.372;2022-07-05T15:15:44;50.80;39.40
18085;DHT22;9169;44.492;11.372;2022-07-05T15:18:13;50.40;39.30
18085;DHT22;9169;44.492;11.372;2022-07-05T15:20:40;50.30;39.70
18085;DHT22;9169;44.492;11.372;2022-07-05T15:23:06;50.40;40.10
18085;DHT22;9169;44.492;11.372;2022-07-05T15:25:33;50.50;39.90
18085;DHT22;9169;44.492;11.372;2022-07-05T15:28:00;50.50;39.10
18085;DHT22;9169;44.492;11.372;2022-07-05T15:30:27;50.30;39.10
18085;DHT22;9169;44.492;11.372;2022-07-05T15:32:54;50.30;39.50
18085;DHT22;9169;44.492;11.372;2022-07-05T15:35:22;50.30;39.50
18085;DHT22;9169;44.492;11.372;2022-07-05T15:37:49;50.10;39.50
18085;DHT22;9169;44.492;11.372;2022-07-05T15:40:16;50.00;39.90
18085;DHT22;9169;44.492;11.372;2022-07-05T15:42:42;49.50;39.10
18085;DHT22;9169;44.492;11.372;2022-07-05T15:45:09;48.70;39.40
18085;DHT22;9169;44.492;11.372;2022-07-05T15:47:36;48.00;40.40
18085;DHT22;9169;44.492;11.372;2022-07-05T15:50:05;47.50;41.80
18085;DHT22;9169;44.492;11.372;2022-07-05T15:52:33;47.40;41.80